Time;durP1;ratioP1;P1;durP2;ratioP2;P2;SDS_P1;SDS_P2;PMS_P1;PMS_P2;Temp;Humidity;BMP_temperature;BMP_pressure;BME280_temperature;BME280_humidity;BME280_pressure;Samples;Min_cycle;Max_cycle;Signal;HPM_P1;HPM_P2
2023/12/27 00:00:59;;;;;;;5.50;0.73;;;;;;;4.90;100.00;101772.88;6291868;28;20056;-73
2023/12/27 00:04:00;;;;;;;6.13;0.90;;;;;;;4.87;100.00;101780.75;6299802;28;20457;-73
2023/12/27 00:07:02;;;;;;;1.85;0.77;;;;;;;4.88;100.00;101785.06;6299516;28;20429;-73
2023/12/27 00:10:06;;;;;;;7.18;0.80;;;;;;;4.81;100.00;101782.56;6299855;28;20055;-72
2023/12/27 00:13:07;;;;;;;9.85;1.08;;;;;;;4.75;100.00;101781.75;6296800;28;20338;-73
2023/12/27 00:16:08;;;;;;;1.95;0.47;;;;;;;4.84;100.00;101774.69;6283214;28;20425;-74
2023/12/27 00:19:10;;;;;;;7.40;0.88;;;;;;;4.90;100.00;101778.09;6287339;28;20049;-73
2023/12/27 00:22:14;;;;;;;6.93;0.80;;;;;;;4.83;100.00;101775.56;6289885;28;20441;-73
2023/12/27 00:25:17;;;;;;;4.85;0.50;;;;;;;4.66;100.00;101781.88;6296544;28;20044;-72
2023/12/27 00:28:19;;;;;;;2.45;0.60;;;;;;;4.69;100.00;101785.31;6296381;28;20045;-73
2023/12/27 00:31:20;;;;;;;4.63;0.57;;;;;;;4.66;100.00;101797.50;6309472;22;20083;-75
2023/12/27 00:34:21;;;;;;;13.57;1.35;;;;;;;4.77;100.00;101804.31;6287475;28;20132;-75
2023/12/27 00:37:23;;;;;;;8.75;1.17;;;;;;;4.73;100.00;101796.56;6279476;28;20350;-75
2023/12/27 00:40:25;;;;;;;6.90;1.42;;;;;;;4.74;100.00;101804.34;6279548;28;20060;-75
2023/12/27 00:43:27;;;;;;;14.05;0.95;;;;;;;4.75;100.00;101807.81;6279425;28;20071;-75
2023/12/27 00:46:28;;;;;;;10.35;1.13;;;;;;;4.74;100.00;101809.53;6278966;28;20041;-75
2023/12/27 00:49:29;;;;;;;7.72;1.08;;;;;;;4.76;100.00;101807.78;6279545;28;20048;-75
2023/12/27 00:52:31;;;;;;;3.53;0.90;;;;;;;4.71;100.00;101813.91;6279081;28;20049;-75
2023/12/27 00:55:33;;;;;;;6.50;1.00;;;;;;;4.73;100.00;101814.78;6275991;28;20052;-75
2023/12/27 00:58:34;;;;;;;5.47;1.65;;;;;;;4.76;100.00;101831.22;6279233;28;20353;-75
2023/12/27 01:01:36;;;;;;;1.92;0.57;;;;;;;4.74;100.00;101830.38;6279303;28;20128;-75
2023/12/27 01:04:37;;;;;;;2.75;0.93;;;;;;;4.68;100.00;101837.38;6278619;28;20048;-75
2023/12/27 01:07:39;;;;;;;4.55;0.70;;;;;;;4.58;100.00;101840.09;6279071;28;20056;-75
2023/12/27 01:10:41;;;;;;;8.98;0.82;;;;;;;4.55;100.00;101831.47;6279148;28;20052;-75
2023/12/27 01:13:43;;;;;;;7.45;1.23;;;;;;;4.68;100.00;101839.97;6278712;28;20056;-75
2023/12/27 01:16:44;;;;;;;4.40;1.02;;;;;;;4.57;100.00;101847.91;6278372;28;20056;-75
2023/12/27 01:19:45;;;;;;;2.85;0.90;;;;;;;4.63;100.00;101844.38;6278725;28;20049;-75
2023/12/27 01:22:47;;;;;;;4.05;0.73;;;;;;;4.55;100.00;101855.75;6278767;28;20052;-75
2023/12/27 01:25:50;;;;;;;2.53;0.88;;;;;;;4.57;100.00;101853.13;6278061;28;20053;-75
2023/12/27 01:28:51;;;;;;;4.68;0.73;;;;;;;4.53;100.00;101852.28;6278721;28;20106;-75
2023/12/27 01:31:52;;;;;;;3.88;0.85;;;;;;;4.57;100.00;101858.34;6277963;28;20049;-75
2023/12/27 01:34:54;;;;;;;7.32;1.00;;;;;;;4.58;100.00;101860.06;6277812;28;20433;-75
2023/12/27 01:37:55;;;;;;;8.93;1.05;;;;;;;4.68;100.00;101861.69;6278201;28;20052;-75
2023/12/27 01:40:58;;;;;;;5.47;0.93;;;;;;;4.63;100.00;101857.41;6278574;28;20048;-75
2023/12/27 01:43:59;;;;;;;11.73;1.38;;;;;;;4.68;100.00;101855.59;6278171;28;20053;-75
2023/12/27 01:47:00;;;;;;;5.70;0.70;;;;;;;4.69;100.00;101867.78;6277524;28;20052;-75
2023/12/27 01:50:02;;;;;;;3.60;0.90;;;;;;;4.72;100.00;101862.50;6278034;28;20067;-75
2023/12/27 01:53:04;;;;;;;11.85;1.25;;;;;;;4.70;100.00;101872.94;6277799;28;20053;-75
2023/12/27 01:56:08;;;;;;;7.57;1.13;;;;;;;4.70;100.00;101870.34;6277609;28;20052;-75
2023/12/27 01:59:09;;;;;;;4.78;1.15;;;;;;;4.62;100.00;101864.34;6277764;28;20052;-75
2023/12/27 02:02:10;;;;;;;10.48;1.25;;;;;;;4.56;100.00;101867.88;6277723;28;20053;-75
2023/12/27 02:05:12;;;;;;;6.03;0.95;;;;;;;4.48;100.00;101869.69;6277326;28;20045;-75
2023/12/27 02:08:15;;;;;;;4.75;0.90;;;;;;;4.61;100.00;101877.41;6277399;28;20221;-75
2023/12/27 02:11:17;;;;;;;12.02;1.42;;;;;;;4.62;100.00;101868.69;6277625;28;20060;-75
2023/12/27 02:14:19;;;;;;;7.30;0.93;;;;;;;4.55;100.00;101867.91;6268966;28;20339;-75
2023/12/27 02:17:21;;;;;;;10.10;1.08;;;;;;;4.54;100.00;101861.84;6266630;28;20052;-75
2023/12/27 02:20:23;;;;;;;5.10;0.80;;;;;;;4.51;100.00;101858.41;6264151;28;20056;-75
2023/12/27 02:23:28;;;;;;;11.30;1.55;;;;;;;4.40;100.00;101850.69;6277211;28;20049;-75
2023/12/27 02:26:32;;;;;;;4.30;1.08;;;;;;;4.41;100.00;101857.66;6276690;28;20049;-75
2023/12/27 02:29:35;;;;;;;6.75;0.90;;;;;;;4.53;100.00;101862.69;6276948;28;20336;-75
2023/12/27 02:32:36;;;;;;;6.85;0.90;;;;;;;4.60;100.00;101865.25;6276909;28;20055;-75
2023/12/27 02:35:37;;;;;;;3.17;0.85;;;;;;;4.60;100.00;101858.31;6276727;28;20358;-75
2023/12/27 02:38:39;;;;;;;6.22;0.90;;;;;;;4.62;100.00;101847.88;6276745;28;20055;-75
2023/12/27 02:41:41;;;;;;;1.60;0.88;;;;;;;4.57;100.00;101848.78;6276848;28;20373;-75
2023/12/27 02:44:43;;;;;;;11.07;1.30;;;;;;;4.45;100.00;101845.44;6275829;28;20056;-75
2023/12/27 02:47:44;;;;;;;12.45;1.30;;;;;;;4.43;100.00;101852.41;6276692;28;20045;-75
2023/12/27 02:50:45;;;;;;;1.50;0.70;;;;;;;4.45;100.00;101853.25;6276845;28;20053;-75
2023/12/27 02:53:47;;;;;;;3.20;0.90;;;;;;;4.48;100.00;101848.03;6276360;28;20049;-75
2023/12/27 02:56:49;;;;;;;4.78;1.48;;;;;;;4.38;100.00;101838.59;6276250;28;20049;-75
2023/12/27 02:59:51;;;;;;;4.75;1.13;;;;;;;4.42;100.00;101837.69;6276285;28;20060;-75
2023/12/27 03:02:52;;;;;;;9.45;0.80;;;;;;;4.41;100.00;101841.16;6276113;28;20361;-75
2023/12/27 03:05:53;;;;;;;12.27;1.10;;;;;;;4.40;100.00;101840.28;6275577;28;20053;-75
2023/12/27 03:08:54;;;;;;;4.90;0.57;;;;;;;4.32;100.00;101829.13;6276330;28;20591;-75
2023/12/27 03:11:58;;;;;;;9.32;1.00;;;;;;;4.27;100.00;101830.88;6275740;28;20440;-75
2023/12/27 03:14:59;;;;;;;10.27;1.00;;;;;;;4.16;100.00;101819.72;6275746;28;20441;-75
2023/12/27 03:18:00;;;;;;;1.75;0.77;;;;;;;4.11;100.00;101821.50;6276135;28;20056;-75
2023/12/27 03:21:02;;;;;;;9.60;1.23;;;;;;;4.01;100.00;101821.59;6276179;28;20049;-75
2023/12/27 03:24:03;;;;;;;6.20;0.70;;;;;;;3.90;100.00;101826.00;6275706;28;20406;-75
2023/12/27 03:27:06;;;;;;;6.00;0.93;;;;;;;3.86;100.00;101813.03;6275330;28;20365;-75
2023/12/27 03:30:08;;;;;;;4.55;0.82;;;;;;;3.93;100.00;101826.00;6275855;28;20055;-75
2023/12/27 03:33:10;;;;;;;0.95;0.60;;;;;;;3.81;100.00;101820.88;6275463;28;20052;-75
2023/12/27 03:36:11;;;;;;;3.55;1.02;;;;;;;3.85;100.00;101821.72;6275121;28;20136;-75
2023/12/27 03:39:12;;;;;;;3.83;1.00;;;;;;;3.80;100.00;101816.56;6275706;28;20049;-75
2023/12/27 03:42:19;;;;;;;10.23;1.17;;;;;;;3.67;100.00;101813.19;6275218;28;20052;-75
2023/12/27 03:45:20;;;;;;;1.30;0.60;;;;;;;3.62;100.00;101811.50;6253818;28;20064;-75
2023/12/27 03:48:21;;;;;;;7.15;1.52;;;;;;;3.55;100.00;101808.97;6238217;28;20050;-75
2023/12/27 03:51:23;;;;;;;6.40;2.00;;;;;;;3.43;100.00;101811.63;6237705;28;20049;-75
2023/12/27 03:54:24;;;;;;;2.72;0.88;;;;;;;3.35;100.00;101815.16;6236417;28;20058;-76
2023/12/27 03:57:27;;;;;;;2.20;0.75;;;;;;;3.26;100.00;101818.66;6240160;28;20042;-75
2023/12/27 04:00:29;;;;;;;1.45;0.70;;;;;;;3.22;100.00;101815.22;6240267;28;20076;-74
2023/12/27 04:03:30;;;;;;;2.40;0.82;;;;;;;3.16;100.00;101819.59;6241718;28;20361;-75
2023/12/27 04:06:32;;;;;;;3.22;0.75;;;;;;;3.13;100.00;101815.28;6245651;28;20057;-75
2023/12/27 04:09:33;;;;;;;6.32;0.80;;;;;;;3.12;100.00;101812.69;6238108;28;20358;-75
2023/12/27 04:12:36;;;;;;;7.13;1.05;;;;;;;3.13;100.00;101817.00;6238284;28;20053;-75
2023/12/27 04:15:37;;;;;;;2.95;1.17;;;;;;;3.17;100.00;101819.59;6244713;28;20132;-75
2023/12/27 04:18:38;;;;;;;9.60;1.38;;;;;;;3.13;100.00;101817.00;6246002;28;20053;-75
2023/12/27 04:21:41;;;;;;;2.95;1.23;;;;;;;3.07;100.00;101820.50;6250187;28;20050;-75
2023/12/27 04:24:42;;;;;;;4.63;1.33;;;;;;;3.10;100.00;101819.66;6260162;28;20060;-75
2023/12/27 04:27:45;;;;;;;8.93;1.52;;;;;;;2.99;100.00;101814.50;6274723;28;20052;-75
2023/12/27 04:30:46;;;;;;;8.95;0.95;;;;;;;2.98;100.00;101817.97;6274635;28;20481;-75
2023/12/27 04:33:47;;;;;;;3.88;1.33;;;;;;;2.91;100.00;101817.16;6274662;28;20049;-75
2023/12/27 04:36:49;;;;;;;2.72;0.95;;;;;;;2.94;100.00;101827.50;6273441;28;20049;-75
2023/12/27 04:39:50;;;;;;;0.90;0.80;;;;;;;2.94;100.00;101829.22;6269863;28;20441;-75
2023/12/27 04:42:53;;;;;;;5.47;1.55;;;;;;;3.01;100.00;101834.41;6274805;28;20052;-75
2023/12/27 04:45:54;;;;;;;5.53;1.23;;;;;;;3.01;100.00;101838.72;6274028;28;20060;-75
2023/12/27 04:48:55;;;;;;;1.33;0.82;;;;;;;2.97;100.00;101847.41;6274865;28;20045;-75
2023/12/27 04:51:57;;;;;;;4.05;1.00;;;;;;;2.97;100.00;101848.25;6274521;28;20049;-75
2023/12/27 04:54:58;;;;;;;3.15;1.10;;;;;;;2.96;100.00;101835.28;6274128;28;20048;-75
2023/12/27 04:58:01;;;;;;;3.67;1.17;;;;;;;2.94;100.00;101845.66;6274802;28;20132;-75
2023/12/27 05:01:03;;;;;;;4.32;0.85;;;;;;;2.95;100.00;101838.75;6272179;28;20049;-75
2023/12/27 05:04:05;;;;;;;1.92;0.82;;;;;;;2.96;100.00;101849.13;6271151;28;20048;-75
2023/12/27 05:07:06;;;;;;;5.40;1.13;;;;;;;2.95;100.00;101847.41;6273998;28;20045;-75
2023/12/27 05:10:08;;;;;;;4.05;1.17;;;;;;;2.93;100.00;101837.91;6277936;28;20057;-75
2023/12/27 05:13:11;;;;;;;6.35;1.13;;;;;;;2.93;100.00;101840.50;6276168;28;20052;-74
2023/12/27 05:16:15;;;;;;;7.72;1.15;;;;;;;2.92;100.00;101843.97;6278714;28;20055;-75
2023/12/27 05:19:16;;;;;;;6.15;0.98;;;;;;;2.84;100.00;101856.09;6278877;28;20341;-75
2023/12/27 05:22:17;;;;;;;2.72;1.10;;;;;;;2.76;100.00;101851.78;6278739;28;20056;-75
2023/12/27 05:25:19;;;;;;;1.92;0.73;;;;;;;2.78;100.00;101849.22;6278251;28;20136;-75
2023/12/27 05:28:21;;;;;;;6.03;0.93;;;;;;;2.83;100.00;101844.00;6278439;28;20044;-75
2023/12/27 05:31:23;;;;;;;11.50;1.38;;;;;;;2.77;100.00;101844.84;6278609;28;20061;-75
2023/12/27 05:34:24;;;;;;;7.80;1.00;;;;;;;2.76;100.00;101836.22;6277762;28;20334;-75
2023/12/27 05:37:25;;;;;;;1.88;0.90;;;;;;;2.76;100.00;101840.53;6278216;28;20064;-75
2023/12/27 05:40:27;;;;;;;3.20;0.90;;;;;;;2.78;100.00;101847.47;6252962;28;20358;-75
2023/12/27 05:43:30;;;;;;;5.03;1.30;;;;;;;2.81;100.00;101841.38;6241258;28;20158;-75
2023/12/27 05:46:34;;;;;;;5.32;1.02;;;;;;;2.80;100.00;101843.13;6241071;28;20081;-76
2023/12/27 05:49:35;;;;;;;2.45;0.88;;;;;;;2.82;100.00;101850.94;6239364;28;20347;-75
2023/12/27 05:52:37;;;;;;;3.10;1.30;;;;;;;2.80;100.00;101845.72;6241448;28;20171;-76
2023/12/27 05:55:38;;;;;;;2.85;1.02;;;;;;;2.86;100.00;101841.38;6238623;28;20045;-76
2023/12/27 05:58:41;;;;;;;3.10;1.38;;;;;;;2.83;100.00;101831.03;6242508;28;20044;-76
2023/12/27 06:01:47;;;;;;;2.88;1.17;;;;;;;2.81;100.00;101831.00;6240258;28;20426;-73
2023/12/27 06:04:48;;;;;;;3.88;1.17;;;;;;;2.68;100.00;101835.41;6239310;28;20120;-73
2023/12/27 06:07:50;;;;;;;3.05;0.93;;;;;;;2.61;100.00;101831.09;6240411;28;20053;-73
2023/12/27 06:10:51;;;;;;;2.83;1.17;;;;;;;2.58;100.00;101828.50;6239029;28;20057;-73
2023/12/27 06:13:54;;;;;;;6.78;1.33;;;;;;;2.54;100.00;101830.25;6240594;28;20398;-72
2023/12/27 06:16:55;;;;;;;2.22;1.27;;;;;;;2.53;100.00;101828.50;6250289;28;20052;-73
2023/12/27 06:19:56;;;;;;;2.92;1.33;;;;;;;2.57;100.00;101831.09;6240627;28;20046;-73
2023/12/27 06:22:58;;;;;;;6.40;1.88;;;;;;;2.69;100.00;101824.16;6259178;28;20187;-73
2023/12/27 06:25:59;;;;;;;3.20;1.40;;;;;;;2.64;100.00;101828.50;6277041;28;20055;-76
2023/12/27 06:29:02;;;;;;;4.78;1.08;;;;;;;2.69;100.00;101826.75;6273789;28;20045;-76
2023/12/27 06:32:04;;;;;;;3.90;1.10;;;;;;;2.70;100.00;101830.19;6269908;28;20449;-76
2023/12/27 06:35:06;;;;;;;7.53;1.27;;;;;;;2.63;100.00;101818.09;6276939;28;20044;-76
2023/12/27 06:38:07;;;;;;;4.57;0.98;;;;;;;2.56;100.00;101819.00;6276975;28;20175;-72
2023/12/27 06:41:09;;;;;;;4.28;1.02;;;;;;;2.54;100.00;101806.91;6276972;28;20461;-76
2023/12/27 06:44:12;;;;;;;3.83;1.10;;;;;;;2.43;100.00;101813.84;6276280;28;20048;-73
2023/12/27 06:47:13;;;;;;;3.45;1.08;;;;;;;2.43;100.00;101811.25;6276864;28;20057;-73
2023/12/27 06:50:15;;;;;;;8.57;1.25;;;;;;;2.43;100.00;101815.56;6276987;28;20109;-76
2023/12/27 06:53:16;;;;;;;5.57;1.23;;;;;;;2.39;100.00;101809.53;6267015;28;20049;-76
2023/12/27 06:56:17;;;;;;;1.63;0.93;;;;;;;2.40;100.00;101807.78;6265781;28;20052;-76
2023/12/27 06:59:20;;;;;;;5.60;1.27;;;;;;;2.40;100.00;101810.38;6274984;28;20041;-76
2023/12/27 07:02:21;;;;;;;9.40;1.30;;;;;;;2.38;100.00;101812.13;6268867;28;20342;-76
2023/12/27 07:05:23;;;;;;;3.20;0.90;;;;;;;2.42;100.00;101824.22;6275974;28;20053;-76
2023/12/27 07:08:24;;;;;;;8.63;1.45;;;;;;;2.43;100.00;101816.44;6259669;28;20052;-76
2023/12/27 07:11:26;;;;;;;4.57;1.13;;;;;;;2.47;100.00;101825.94;6275020;28;20048;-76
2023/12/27 07:14:28;;;;;;;3.22;1.08;;;;;;;2.54;100.00;101819.88;6250644;28;20057;-76
2023/12/27 07:17:30;;;;;;;6.40;1.95;;;;;;;2.60;100.00;101816.41;6251171;28;20076;-76
2023/12/27 07:20:31;;;;;;;1.85;1.15;;;;;;;2.66;100.00;101824.16;6251181;28;20050;-76
2023/12/27 07:23:34;;;;;;;5.53;1.45;;;;;;;2.74;100.00;101825.00;6251223;28;20053;-76
2023/12/27 07:26:35;;;;;;;5.35;1.63;;;;;;;2.83;100.00;101829.28;6250736;28;20050;-76
2023/12/27 07:29:38;;;;;;;6.15;1.80;;;;;;;2.88;100.00;101829.25;6250984;28;20049;-76
2023/12/27 07:32:39;;;;;;;8.13;1.33;;;;;;;2.92;100.00;101830.97;6250443;28;20438;-77
2023/12/27 07:35:42;;;;;;;1.92;0.82;;;;;;;2.97;100.00;101830.09;6250813;28;20107;-76
2023/12/27 07:38:44;;;;;;;2.42;0.80;;;;;;;2.96;100.00;101825.78;6250846;28;20057;-76
2023/12/27 07:41:45;;;;;;;5.07;1.13;;;;;;;2.94;100.00;101829.22;6250411;28;20354;-76
2023/12/27 07:44:48;;;;;;;0.88;0.60;;;;;;;2.98;100.00;101831.81;6250461;28;20061;-76
2023/12/27 07:47:49;;;;;;;7.05;1.08;;;;;;;2.89;100.00;101831.84;6250592;28;20132;-76
2023/12/27 07:50:51;;;;;;;4.40;1.90;;;;;;;2.85;100.00;101831.88;6250723;28;20366;-76
2023/12/27 07:53:52;;;;;;;5.47;1.02;;;;;;;2.79;100.00;101825.84;6250365;28;20402;-76
2023/12/27 07:56:53;;;;;;;2.53;0.85;;;;;;;2.84;100.00;101831.00;6250410;28;20049;-76
2023/12/27 07:59:57;;;;;;;3.08;1.20;;;;;;;2.87;100.00;101822.34;6250538;28;20049;-76
2023/12/27 08:02:59;;;;;;;4.00;1.10;;;;;;;2.82;100.00;101819.78;6250610;28;20045;-73
2023/12/27 08:06:00;;;;;;;5.38;1.15;;;;;;;2.83;100.00;101818.03;6249864;28;20132;-74
2023/12/27 08:09:02;;;;;;;7.20;1.25;;;;;;;2.87;100.00;101814.56;6250598;28;20050;-74
2023/12/27 08:12:04;;;;;;;11.95;1.40;;;;;;;2.88;100.00;101819.75;6253847;28;20359;-73
2023/12/27 08:15:08;;;;;;;6.75;1.02;;;;;;;2.88;100.00;101811.97;6266779;28;20048;-77
2023/12/27 08:18:09;;;;;;;8.85;1.85;;;;;;;2.88;100.00;101806.75;6268471;28;20435;-74
2023/12/27 08:21:11;;;;;;;3.88;1.30;;;;;;;2.92;100.00;101797.22;6271995;28;20044;-73
2023/12/27 08:24:12;;;;;;;7.65;1.75;;;;;;;2.94;100.00;101803.28;6274470;28;20049;-73
2023/12/27 08:27:13;;;;;;;8.05;1.92;;;;;;;2.98;100.00;101799.78;6275037;28;20053;-73
2023/12/27 08:30:17;;;;;;;7.57;1.40;;;;;;;2.99;100.00;101801.50;6274562;28;20045;-76
2023/12/27 08:33:18;;;;;;;8.50;1.60;;;;;;;3.02;100.00;101794.56;6249572;28;20045;-76
2023/12/27 08:36:19;;;;;;;6.10;1.58;;;;;;;3.05;100.00;101791.97;6272417;28;20072;-75
2023/12/27 08:39:21;;;;;;;4.65;1.20;;;;;;;3.13;100.00;101786.72;6274757;28;20045;-76
2023/12/27 08:42:22;;;;;;;7.25;1.25;;;;;;;3.21;100.00;101784.06;6274672;28;20049;-76
2023/12/27 08:45:25;;;;;;;5.88;1.23;;;;;;;3.32;100.00;101774.50;6274172;28;20476;-74
2023/12/27 08:48:26;;;;;;;6.72;1.45;;;;;;;3.39;100.00;101770.09;6254819;28;20050;-73
2023/12/27 08:51:29;;;;;;;1.40;0.95;;;;;;;3.42;100.00;101768.34;6269519;28;20053;-74
2023/12/27 08:54:30;;;;;;;5.22;1.02;;;;;;;3.44;100.00;101765.72;6264161;28;20463;-74
2023/12/27 08:57:32;;;;;;;3.72;1.23;;;;;;;3.49;100.00;101761.34;6252253;28;20049;-73
2023/12/27 09:00:34;;;;;;;6.32;1.10;;;;;;;3.60;100.00;101762.16;6263136;28;20049;-74
2023/12/27 09:03:36;;;;;;;4.88;1.80;;;;;;;3.69;100.00;101751.69;6279183;28;20357;-74
2023/12/27 09:06:37;;;;;;;6.35;2.53;;;;;;;3.75;100.00;101740.34;6273432;28;20049;-74
2023/12/27 09:09:38;;;;;;;5.53;1.80;;;;;;;3.78;100.00;101738.59;6262514;28;20069;-74
2023/12/27 09:12:40;;;;;;;3.05;1.50;;;;;;;3.88;100.00;101738.50;6277252;28;20044;-74
2023/12/27 09:15:42;;;;;;;9.20;1.90;;;;;;;4.04;100.00;101740.06;6256144;28;20049;-74
2023/12/27 09:18:44;;;;;;;9.30;2.55;;;;;;;3.97;100.00;101731.47;6278886;28;20053;-74
2023/12/27 09:21:46;;;;;;;8.98;2.50;;;;;;;4.04;100.00;101724.44;6278468;28;20131;-74
2023/12/27 09:24:47;;;;;;;11.43;2.88;;;;;;;4.12;100.00;101722.63;6273973;28;20056;-74
2023/12/27 09:27:50;;;;;;;5.20;2.53;;;;;;;4.08;100.00;101724.41;6253899;28;20053;-74
2023/12/27 09:30:52;;;;;;;13.60;3.83;;;;;;;4.13;100.00;101726.09;6249385;28;20050;-72
2023/12/27 09:33:54;;;;;;;20.40;4.00;;;;;;;4.15;100.00;101722.63;6272989;28;20091;-74
2023/12/27 09:36:56;;;;;;;9.98;2.40;;;;;;;4.10;100.00;101728.75;6278350;28;20057;-70
2023/12/27 09:39:57;;;;;;;2.85;1.42;;;;;;;4.18;100.00;101729.50;6255658;28;20045;-72
2023/12/27 09:42:59;;;;;;;9.30;1.65;;;;;;;4.25;100.00;101729.44;6258754;28;20045;-73
2023/12/27 09:46:04;;;;;;;2.17;1.45;;;;;;;4.27;100.00;101726.78;6277862;28;20056;-74
2023/12/27 09:49:05;;;;;;;3.92;1.00;;;;;;;4.30;100.00;101727.63;6259903;28;20041;-74
2023/12/27 09:52:08;;;;;;;4.10;1.27;;;;;;;4.35;100.00;101724.13;6260598;28;20041;-72
2023/12/27 09:55:10;;;;;;;3.63;1.05;;;;;;;4.30;100.00;101722.44;6241387;28;20049;-74
2023/12/27 09:58:11;;;;;;;4.88;1.20;;;;;;;4.32;100.00;101712.88;6239366;28;20052;-74
2023/12/27 10:01:15;;;;;;;12.52;1.88;;;;;;;4.36;100.00;101711.09;6241229;28;20045;-74
2023/12/27 10:04:23;;;;;;;4.88;1.15;;;;;;;4.47;100.00;101695.34;6239219;28;20125;-74
2023/12/27 10:07:26;;;;;;;3.92;1.10;;;;;;;4.55;100.00;101696.13;6247152;28;20062;-74
2023/12/27 10:10:30;;;;;;;2.38;1.10;;;;;;;4.63;100.00;101685.56;6260561;28;20052;-74
2023/12/27 10:13:33;;;;;;;11.07;1.45;;;;;;;4.62;100.00;101682.13;6277461;28;20137;-74
2023/12/27 10:16:36;;;;;;;2.80;1.35;;;;;;;4.70;100.00;101682.88;6267201;28;20046;-74
2023/12/27 10:19:39;;;;;;;2.22;0.82;;;;;;;4.72;100.00;101673.28;6277337;28;20128;-72
2023/12/27 10:22:40;;;;;;;4.18;1.40;;;;;;;4.78;100.00;101670.63;6263881;28;20389;-72
2023/12/27 10:25:43;;;;;;;3.63;1.20;;;;;;;4.80;100.00;101667.97;6265069;28;20053;-72
2023/12/27 10:28:44;;;;;;;4.88;1.73;;;;;;;4.78;100.00;101664.56;6277331;28;20080;-72
2023/12/27 10:31:48;;;;;;;2.90;1.00;;;;;;;4.76;100.00;101654.13;6266809;28;20045;-74
2023/12/27 10:34:50;;;;;;;16.80;4.88;;;;;;;4.70;100.00;101650.78;6243681;28;20045;-74
2023/12/27 10:37:59;;;;;;;7.53;3.00;;;;;;;4.79;100.00;101648.03;6241381;28;20116;-73
2023/12/27 10:41:03;;;;;;;6.43;2.45;;;;;;;4.82;100.00;101643.66;6241702;28;20124;-72
2023/12/27 10:44:05;;;;;;;4.88;1.50;;;;;;;4.85;100.00;101640.13;6242599;28;20050;-71
2023/12/27 10:47:11;;;;;;;2.67;1.10;;;;;;;4.89;100.00;101631.38;6239059;28;20096;-74
2023/12/27 10:50:13;;;;;;;9.32;2.35;;;;;;;4.98;100.00;101617.34;6239870;28;20048;-74
2023/12/27 10:53:19;;;;;;;3.08;0.98;;;;;;;5.00;100.00;101608.66;6237934;28;20430;-74
2023/12/27 10:56:22;;;;;;;8.45;1.48;;;;;;;5.11;100.00;101607.59;6241606;28;20057;-71
2023/12/27 10:59:24;;;;;;;3.47;1.10;;;;;;;5.16;100.00;101598.81;6241936;28;20046;-73
2023/12/27 11:02:28;;;;;;;4.53;1.23;;;;;;;5.17;100.00;101599.66;6238688;28;20446;-74
2023/12/27 11:05:31;;;;;;;4.47;1.70;;;;;;;5.21;100.00;101591.78;6237885;28;20045;-74
2023/12/27 11:08:34;;;;;;;6.85;1.50;;;;;;;5.18;100.00;101593.56;6244883;28;20052;-74
2023/12/27 11:11:38;;;;;;;3.70;1.15;;;;;;;5.29;100.00;101587.28;6240349;28;20054;-74
2023/12/27 11:14:41;;;;;;;4.25;1.63;;;;;;;5.30;100.00;101577.72;6241268;28;20042;-73
2023/12/27 11:17:45;;;;;;;15.07;3.08;;;;;;;5.35;100.00;101563.72;6240421;28;20048;-74
2023/12/27 11:20:47;;;;;;;11.38;1.52;;;;;;;5.37;100.00;101549.81;6238939;28;20041;-74
2023/12/27 11:23:49;;;;;;;3.55;1.30;;;;;;;5.36;100.00;101541.16;6238314;28;20054;-74
2023/12/27 11:26:59;;;;;;;5.95;2.03;;;;;;;5.38;100.00;101531.53;6238013;28;20068;-73
2023/12/27 11:30:01;;;;;;;4.65;1.40;;;;;;;5.40;100.00;101534.09;6244862;28;20339;-73
2023/12/27 11:33:05;;;;;;;12.02;1.98;;;;;;;5.39;100.00;101527.19;6237401;28;20453;-73
2023/12/27 11:36:08;;;;;;;8.70;1.58;;;;;;;5.31;100.00;101512.56;6237768;28;20347;-73
2023/12/27 11:39:18;;;;;;;2.83;1.30;;;;;;;5.38;100.00;101502.88;6238094;28;20123;-73
2023/12/27 11:42:20;;;;;;;12.82;1.40;;;;;;;5.43;100.00;101490.59;6236834;28;20053;-74
2023/12/27 11:45:21;;;;;;;5.88;1.60;;;;;;;5.41;100.00;101487.19;6238614;28;20346;-74
2023/12/27 11:48:24;;;;;;;6.90;1.38;;;;;;;5.51;100.00;101474.81;6237255;28;20396;-73
2023/12/27 11:51:29;;;;;;;7.18;1.45;;;;;;;5.51;100.00;101475.66;6238347;28;20060;-73
2023/12/27 11:54:30;;;;;;;10.75;1.42;;;;;;;5.47;100.00;101457.50;6237883;28;20057;-73
2023/12/27 11:57:31;;;;;;;12.25;1.80;;;;;;;5.51;100.00;101453.94;6237401;28;20049;-73
2023/12/27 12:00:33;;;;;;;7.30;1.90;;;;;;;5.49;100.00;101440.06;6238368;28;20069;-73
2023/12/27 12:03:38;;;;;;;5.88;1.90;;;;;;;5.45;100.00;101436.69;6236564;28;20264;-74
2023/12/27 12:06:59;;;;;;;3.17;1.20;;;;;;;5.51;100.00;101428.75;6235673;28;20354;-74
2023/12/27 12:10:01;;;;;;;6.43;2.88;;;;;;;5.50;100.00;101424.41;6241380;28;20041;-73
2023/12/27 12:13:03;;;;;;;6.78;1.58;;;;;;;5.52;100.00;101401.78;6270485;28;20460;-74
2023/12/27 12:16:06;;;;;;;8.70;2.38;;;;;;;5.55;100.00;101393.91;6269564;28;20053;-73
2023/12/27 12:19:11;;;;;;;16.15;1.58;;;;;;;5.63;100.00;101391.09;6266884;28;20064;-73
2023/12/27 12:22:14;;;;;;;6.80;2.42;;;;;;;5.56;100.00;101393.00;6279944;28;20053;-74
2023/12/27 12:25:15;;;;;;;7.40;1.75;;;;;;;5.58;100.00;101383.38;6277660;28;20134;-73
2023/12/27 12:28:16;;;;;;;4.35;1.15;;;;;;;5.68;100.00;101376.22;6280122;28;20049;-74
2023/12/27 12:31:18;;;;;;;7.40;1.85;;;;;;;5.73;100.00;101373.53;6267814;28;20052;-74
2023/12/27 12:34:20;;;;;;;6.63;1.58;;;;;;;5.76;100.00;101371.66;6278641;28;20048;-73
2023/12/27 12:37:22;;;;;;;7.65;1.95;;;;;;;5.78;100.00;101369.91;6279458;28;20426;-74
2023/12/27 12:40:23;;;;;;;9.20;2.03;;;;;;;5.74;100.00;101368.25;6279816;28;20461;-73
2023/12/27 12:43:26;;;;;;;6.82;1.63;;;;;;;5.69;100.00;101366.66;6279323;28;20061;-74
2023/12/27 12:46:27;;;;;;;7.22;1.70;;;;;;;5.68;100.00;101350.16;6273003;28;20111;-74
2023/12/27 12:49:30;;;;;;;7.03;1.85;;;;;;;5.64;100.00;101355.47;6266005;28;20057;-73
2023/12/27 12:52:34;;;;;;;5.45;1.92;;;;;;;5.64;100.00;101348.50;6258165;28;20357;-72
2023/12/27 12:55:36;;;;;;;5.38;1.50;;;;;;;5.62;100.00;101347.66;6241667;28;20049;-72
2023/12/27 12:58:39;;;;;;;5.25;2.00;;;;;;;5.58;100.00;101343.41;6250465;28;20057;-72
2023/12/27 13:01:40;;;;;;;8.45;1.42;;;;;;;5.60;100.00;101341.66;6250974;28;20468;-72
2023/12/27 13:04:43;;;;;;;6.57;1.65;;;;;;;5.55;100.00;101335.69;6289885;22;20064;-72
2023/12/27 13:07:44;;;;;;;7.57;1.90;;;;;;;5.54;100.00;101334.84;6269653;28;20677;-72
2023/12/27 13:10:47;;;;;;;6.57;2.00;;;;;;;5.54;100.00;101332.22;6268304;28;20045;-71
2023/12/27 13:13:49;;;;;;;8.48;2.17;;;;;;;5.57;100.00;101326.06;6270844;28;20365;-71
2023/12/27 13:16:50;;;;;;;13.45;2.33;;;;;;;5.52;100.00;101313.13;6272074;28;20046;-72
2023/12/27 13:19:53;;;;;;;11.98;3.45;;;;;;;5.58;100.00;101299.09;6271319;28;20041;-71
2023/12/27 13:22:54;;;;;;;8.05;2.30;;;;;;;5.55;100.00;101291.38;6266101;28;20050;-71
2023/12/27 13:25:55;;;;;;;9.00;2.20;;;;;;;5.49;100.00;101287.13;6291948;28;20052;-71
2023/12/27 13:28:57;;;;;;;4.45;1.90;;;;;;;5.48;100.00;101285.44;6282746;28;20056;-71
2023/12/27 13:31:58;;;;;;;8.32;2.00;;;;;;;5.46;100.00;101274.19;6272775;28;20048;-71
2023/12/27 13:35:00;;;;;;;6.40;2.40;;;;;;;5.46;100.00;101265.53;6265767;28;20052;-71
2023/12/27 13:38:02;;;;;;;7.68;2.65;;;;;;;5.42;100.00;101253.44;6274159;28;20053;-72
2023/12/27 13:41:04;;;;;;;8.65;3.50;;;;;;;5.43;100.00;101250.78;6276969;28;20048;-71
2023/12/27 13:44:06;;;;;;;4.95;2.35;;;;;;;5.39;100.00;101241.34;6284955;28;20072;-72
2023/12/27 13:47:07;;;;;;;6.68;2.60;;;;;;;5.41;100.00;101236.09;6266523;28;20059;-71
2023/12/27 13:50:10;;;;;;;14.95;3.10;;;;;;;5.41;100.00;101236.09;6265540;28;20048;-71
2023/12/27 13:53:11;;;;;;;7.25;2.50;;;;;;;5.41;100.00;101239.56;6262378;28;20049;-71
2023/12/27 13:56:14;;;;;;;5.40;2.70;;;;;;;5.44;100.00;101233.41;6261348;28;20048;-71
2023/12/27 13:59:15;;;;;;;16.52;2.75;;;;;;;5.44;100.00;101233.41;6265921;28;20052;-71
2023/12/27 14:02:17;;;;;;;11.25;2.72;;;;;;;5.45;100.00;101243.81;6277090;28;20044;-71
2023/12/27 14:05:20;;;;;;;8.98;1.98;;;;;;;5.48;100.00;101243.72;6269063;28;20194;-71